Time;durP1;ratioP1;P1;durP2;ratioP2;P2;SDS_P1;SDS_P2;PMS_P1;PMS_P2;Temp;Humidity;BMP_temperature;BMP_pressure;BME280_temperature;BME280_humidity;BME280_pressure;Samples;Min_cycle;Max_cycle;Signal;HPM_P1;HPM_P2
2021/07/19 00:02:15;;;;;;;0.60;0.50;;;;;;;20.16;61.45;99182.16;5076221;28;40760;-84
2021/07/19 00:04:46;;;;;;;0.80;0.80;;;;;;;20.09;61.67;99184.63;5075039;28;41996;-84
2021/07/19 00:07:15;;;;;;;0.90;0.67;;;;;;;20.08;61.64;99184.75;5092636;27;42148;-84
2021/07/19 00:09:44;;;;;;;0.60;0.57;;;;;;;20.04;61.95;99183.34;5074980;28;39226;-85
2021/07/19 00:12:14;;;;;;;0.70;0.70;;;;;;;19.93;61.85;99168.25;5075592;28;40845;-84
2021/07/19 00:14:42;;;;;;;0.70;0.70;;;;;;;19.96;61.83;99183.25;5075509;28;41769;-84
2021/07/19 00:17:10;;;;;;;0.47;0.47;;;;;;;19.87;62.08;99159.94;5092575;28;41210;-84
2021/07/19 00:19:38;;;;;;;0.90;0.60;;;;;;;19.75;62.10;99150.38;5075343;28;40909;-84
2021/07/19 00:22:07;;;;;;;0.67;0.67;;;;;;;19.80;62.14;99165.03;5075513;28;41008;-85
2021/07/19 00:24:35;;;;;;;0.90;0.70;;;;;;;19.87;62.23;99179.59;5075635;28;41687;-84
2021/07/19 00:27:04;;;;;;;0.50;0.50;;;;;;;19.79;62.21;99162.50;5092595;28;42391;-85
2021/07/19 00:29:32;;;;;;;0.47;0.47;;;;;;;19.73;62.18;99162.13;5092162;28;39235;-84
2021/07/19 00:31:59;;;;;;;1.00;0.83;;;;;;;19.61;62.46;99141.78;5091860;28;40679;-85
2021/07/19 00:34:27;;;;;;;0.70;0.63;;;;;;;19.67;62.71;99168.06;5074700;28;41868;-85
2021/07/19 00:36:55;;;;;;;0.70;0.67;;;;;;;19.63;62.57;99161.31;5075391;28;41224;-85
2021/07/19 00:39:25;;;;;;;0.60;0.60;;;;;;;19.68;62.54;99176.97;5075024;28;39233;-85
2021/07/19 00:41:53;;;;;;;0.60;0.60;;;;;;;19.55;62.82;99158.47;5075532;28;40707;-84
2021/07/19 00:44:21;;;;;;;1.03;0.90;;;;;;;19.47;62.70;99152.09;5075027;28;42954;-85
2021/07/19 00:46:54;;;;;;;1.27;0.67;;;;;;;19.58;62.82;99177.00;5075300;28;42600;-83
2021/07/19 00:49:22;;;;;;;0.90;0.77;;;;;;;19.46;63.10;99162.00;5075150;28;39169;-85
2021/07/19 00:51:54;;;;;;;0.63;0.63;;;;;;;19.45;63.18;99165.69;5091474;28;42030;-84
2021/07/19 00:54:26;;;;;;;0.50;0.50;;;;;;;19.38;63.49;99156.53;5074471;28;42978;-85
2021/07/19 00:56:56;;;;;;;3.70;1.33;;;;;;;19.46;63.47;99170.06;5074245;28;41240;-85
2021/07/19 00:59:26;;;;;;;0.60;0.60;;;;;;;19.43;63.76;99170.34;5074895;28;39311;-85
2021/07/19 01:01:57;;;;;;;0.87;0.70;;;;;;;19.38;63.81;99167.25;5074848;28;41046;-85
2021/07/19 01:04:26;;;;;;;0.70;0.70;;;;;;;19.17;63.84;99137.03;5074611;28;42174;-84
2021/07/19 01:06:59;;;;;;;0.53;0.53;;;;;;;19.25;64.20;99147.91;5075098;28;41367;-85
2021/07/19 01:09:30;;;;;;;0.63;0.63;;;;;;;19.33;64.16;99166.84;5074581;28;41053;-85
2021/07/19 01:11:59;;;;;;;0.57;0.57;;;;;;;19.29;64.22;99163.56;5073950;28;40770;-84
2021/07/19 01:14:28;;;;;;;0.50;0.50;;;;;;;19.17;63.91;99151.28;5073812;28;42832;-84
2021/07/19 01:16:56;;;;;;;0.77;0.77;;;;;;;19.24;64.08;99170.38;5074107;28;41509;-85
2021/07/19 01:19:31;;;;;;;0.47;0.47;;;;;;;19.24;64.12;99165.00;5074496;28;39337;-86
2021/07/19 01:22:18;;;;;;;0.73;0.60;;;;;;;19.08;64.26;99135.19;5094158;28;41199;-85
2021/07/19 01:24:53;;;;;;;0.90;0.70;;;;;;;19.17;64.54;99163.88;5074444;28;41997;-84
2021/07/19 01:27:57;;;;;;;0.47;0.47;;;;;;;19.13;64.62;99155.28;5074657;28;41174;-84
2021/07/19 01:30:29;;;;;;;0.60;0.60;;;;;;;19.05;64.21;99147.06;5057755;28;39556;-84
2021/07/19 01:33:01;;;;;;;0.60;0.60;;;;;;;18.98;64.39;99145.94;5058910;28;40806;-85
2021/07/19 01:35:38;;;;;;;0.63;0.63;;;;;;;19.04;64.70;99157.97;5077919;28;42401;-85
2021/07/19 01:38:07;;;;;;;0.47;0.40;;;;;;;19.04;64.57;99166.03;5078757;28;41320;-84
2021/07/19 01:40:41;;;;;;;0.73;0.67;;;;;;;18.91;64.93;99145.69;5078096;28;39482;-84
2021/07/19 01:43:11;;;;;;;0.60;0.60;;;;;;;18.94;64.96;99155.28;5093869;28;41795;-85
2021/07/19 01:45:41;;;;;;;0.60;0.60;;;;;;;18.83;64.85;99142.84;5077251;28;42071;-85
2021/07/19 01:48:11;;;;;;;0.87;0.70;;;;;;;18.88;64.99;99159.38;5078458;28;41261;-85
2021/07/19 01:50:40;;;;;;;0.60;0.60;;;;;;;18.71;64.94;99137.75;5077856;28;39115;-85
2021/07/19 01:53:21;;;;;;;0.60;0.60;;;;;;;18.77;65.01;99147.94;5077999;28;41977;-85
2021/07/19 01:55:52;;;;;;;0.50;0.50;;;;;;;18.79;65.15;99152.16;5094282;28;42022;-85
2021/07/19 01:58:23;;;;;;;0.60;0.60;;;;;;;18.68;65.28;99141.56;5093831;28;42520;-84
2021/07/19 02:01:17;;;;;;;0.50;0.50;;;;;;;18.60;65.31;99136.06;5073934;28;40900;-85
2021/07/19 02:03:45;;;;;;;0.67;0.50;;;;;;;18.59;65.31;99142.41;5057351;28;40910;-84
2021/07/19 02:06:13;;;;;;;0.80;0.60;;;;;;;18.62;65.52;99148.34;5057621;28;41701;-84
2021/07/19 02:08:50;;;;;;;0.50;0.50;;;;;;;18.52;65.55;99139.41;5072584;28;41636;-84
2021/07/19 02:11:26;;;;;;;0.80;0.80;;;;;;;18.47;65.86;99135.44;5077831;28;39425;-87
2021/07/19 02:13:54;;;;;;;0.97;0.93;;;;;;;18.47;65.95;99154.22;5076925;28;40942;-86
2021/07/19 02:16:29;;;;;;;0.77;0.60;;;;;;;18.47;66.23;99156.88;5077300;28;42167;-84
2021/07/19 02:18:58;;;;;;;0.73;0.73;;;;;;;18.47;66.07;99162.25;5077702;28;41335;-85
2021/07/19 02:21:30;;;;;;;0.50;0.50;;;;;;;18.36;66.56;99148.97;5075996;28;39932;-85
2021/07/19 02:24:18;;;;;;;0.50;0.50;;;;;;;18.41;66.45;99169.03;5093842;28;41158;-84
2021/07/19 02:27:00;;;;;;;0.70;0.60;;;;;;;18.28;66.60;99153.19;5077881;28;41563;-85
2021/07/19 02:29:29;;;;;;;0.73;0.50;;;;;;;18.24;66.46;99153.59;5076875;28;41185;-85
2021/07/19 02:31:59;;;;;;;0.87;0.77;;;;;;;18.16;66.47;99143.56;5077380;28;39208;-85
2021/07/19 02:34:27;;;;;;;0.50;0.50;;;;;;;18.22;66.64;99158.25;5077266;28;40876;-85
2021/07/19 02:36:58;;;;;;;1.97;1.27;;;;;;;18.26;66.69;99165.88;5077153;28;41799;-85
2021/07/19 02:39:29;;;;;;;1.47;0.70;;;;;;;18.18;66.91;99156.81;5077122;28;42912;-85
2021/07/19 02:42:01;;;;;;;0.60;0.60;;;;;;;18.16;67.16;99151.63;5076626;28;38951;-85
2021/07/19 02:44:29;;;;;;;0.80;0.63;;;;;;;18.15;67.30;99157.94;5076310;28;40754;-85
2021/07/19 02:47:08;;;;;;;0.77;0.57;;;;;;;18.22;67.89;99163.59;5077204;28;41921;-85
2021/07/19 02:49:37;;;;;;;0.70;0.67;;;;;;;18.11;67.74;99145.78;5076512;28;42226;-85
2021/07/19 02:52:06;;;;;;;0.80;0.80;;;;;;;18.13;68.04;99157.22;5078008;28;39891;-85
2021/07/19 02:54:36;;;;;;;0.70;0.70;;;;;;;18.18;68.23;99160.34;5093322;28;42653;-84
2021/07/19 02:57:07;;;;;;;0.80;0.80;;;;;;;18.07;68.01;99155.09;5077202;28;41669;-85
2021/07/19 02:59:39;;;;;;;0.60;0.60;;;;;;;18.08;68.32;99151.41;5075568;28;41204;-85
2021/07/19 03:02:12;;;;;;;0.50;0.50;;;;;;;18.16;68.58;99173.06;5076332;28;39213;-85
2021/07/19 03:04:41;;;;;;;0.70;0.70;;;;;;;18.11;68.59;99161.03;5076163;28;40734;-85
2021/07/19 03:07:17;;;;;;;0.80;0.80;;;;;;;18.05;68.42;99161.59;5076195;28;41819;-84
2021/07/19 03:09:47;;;;;;;1.00;0.90;;;;;;;18.12;68.29;99171.63;5077032;28;41314;-85
2021/07/19 03:12:19;;;;;;;0.90;0.90;;;;;;;18.02;68.44;99146.63;5077457;28;39274;-84
2021/07/19 03:14:49;;;;;;;0.50;0.50;;;;;;;18.12;68.62;99168.94;5074888;28;41577;-86
2021/07/19 03:17:20;;;;;;;0.60;0.60;;;;;;;18.03;68.35;99163.56;5075969;28;41815;-85
2021/07/19 03:19:51;;;;;;;1.13;0.80;;;;;;;18.10;68.65;99175.41;5093508;28;42448;-85
2021/07/19 03:22:21;;;;;;;0.77;0.73;;;;;;;17.98;68.32;99161.25;5093517;28;40933;-86
2021/07/19 03:24:59;;;;;;;0.90;0.90;;;;;;;17.89;68.44;99148.69;5076795;28;40977;-85
2021/07/19 03:27:29;;;;;;;0.47;0.47;;;;;;;17.96;68.41;99160.53;5076428;28;43029;-85
2021/07/19 03:29:59;;;;;;;0.70;0.70;;;;;;;17.94;68.17;99166.03;5076109;28;41094;-85
2021/07/19 03:32:38;;;;;;;0.80;0.80;;;;;;;17.95;68.51;99167.75;5075921;28;38876;-84
2021/07/19 03:35:14;;;;;;;0.83;0.83;;;;;;;17.95;68.33;99172.25;5075872;28;40615;-85
2021/07/19 03:37:43;;;;;;;0.70;0.70;;;;;;;17.89;68.27;99173.66;5075870;28;42741;-85
2021/07/19 03:40:19;;;;;;;0.53;0.53;;;;;;;17.97;68.64;99180.16;5077772;28;42614;-85
2021/07/19 03:42:50;;;;;;;0.60;0.60;;;;;;;17.85;68.65;99161.50;5091321;28;39977;-84
2021/07/19 03:45:18;;;;;;;1.10;1.00;;;;;;;17.88;68.71;99165.75;5079533;28;41767;-87
2021/07/19 03:47:50;;;;;;;0.73;0.70;;;;;;;17.95;68.31;99175.78;5076358;28;42863;-86
2021/07/19 03:50:18;;;;;;;0.60;0.60;;;;;;;17.95;68.54;99182.97;5090798;28;41448;-85
2021/07/19 03:52:48;;;;;;;0.80;0.80;;;;;;;17.95;68.50;99177.59;5090848;28;39252;-85
2021/07/19 03:55:24;;;;;;;1.00;0.70;;;;;;;17.87;68.74;99164.03;5093188;28;40705;-87
2021/07/19 03:57:54;;;;;;;1.07;0.60;;;;;;;17.85;70.11;99166.00;5090289;28;41905;-86
2021/07/19 04:00:25;;;;;;;0.83;0.83;;;;;;;17.96;69.70;99184.66;5076844;28;42515;-84
2021/07/19 04:03:17;;;;;;;0.63;0.63;;;;;;;17.87;69.57;99164.88;5078724;28;40274;-85
2021/07/19 04:05:57;;;;;;;1.37;0.90;;;;;;;17.98;69.46;99185.38;5079331;28;41629;-85
2021/07/19 04:08:31;;;;;;;0.77;0.60;;;;;;;17.99;69.60;99189.75;5078606;28;41889;-84
2021/07/19 04:11:01;;;;;;;0.53;0.53;;;;;;;18.02;69.23;99184.13;5078620;28;41819;-85
2021/07/19 04:13:32;;;;;;;0.70;0.70;;;;;;;18.01;69.33;99181.59;5077433;28;39102;-85
2021/07/19 04:16:02;;;;;;;1.30;1.20;;;;;;;18.04;69.22;99182.19;5075060;28;41661;-84
2021/07/19 04:18:35;;;;;;;0.70;0.70;;;;;;;18.05;68.75;99178.50;5074444;28;41916;-84
2021/07/19 04:21:04;;;;;;;0.50;0.50;;;;;;;18.12;68.65;99187.72;5075360;28;41650;-84
2021/07/19 04:23:36;;;;;;;0.80;0.80;;;;;;;18.16;68.96;99185.59;5075437;28;39312;-85
2021/07/19 04:26:17;;;;;;;0.97;0.90;;;;;;;18.30;69.33;99191.41;5075445;28;41682;-85
2021/07/19 04:28:51;;;;;;;0.67;0.67;;;;;;;18.13;69.09;99165.28;5075481;28;41835;-85
2021/07/19 04:31:19;;;;;;;0.50;0.50;;;;;;;18.35;68.77;99191.03;5091279;28;41092;-85
2021/07/19 04:33:57;;;;;;;0.57;0.57;;;;;;;18.46;68.91;99200.78;5076087;28;40006;-84
2021/07/19 04:36:34;;;;;;;1.23;0.73;;;;;;;18.47;69.03;99191.75;5091511;28;41920;-85
2021/07/19 04:39:03;;;;;;;0.90;0.77;;;;;;;18.61;68.54;99204.81;5074762;28;42817;-85
2021/07/19 04:41:33;;;;;;;0.63;0.60;;;;;;;18.57;69.35;99187.25;5075053;28;41486;-86
2021/07/19 04:44:01;;;;;;;2.40;1.40;;;;;;;18.56;69.08;99180.19;5075413;28;40742;-85
2021/07/19 04:46:29;;;;;;;0.93;0.90;;;;;;;18.77;68.73;99202.44;5074748;28;40800;-84
2021/07/19 04:48:58;;;;;;;1.13;0.80;;;;;;;18.77;68.86;99186.34;5075718;28;42998;-85
2021/07/19 04:51:26;;;;;;;0.70;0.70;;;;;;;18.86;68.43;99185.50;5072492;28;42402;-85
2021/07/19 04:53:56;;;;;;;0.60;0.60;;;;;;;18.96;68.36;99185.50;5075434;28;39337;-85
2021/07/19 04:56:25;;;;;;;0.63;0.57;;;;;;;19.12;68.42;99196.53;5076719;28;41895;-84
2021/07/19 04:58:54;;;;;;;0.80;0.77;;;;;;;19.16;68.48;99200.63;5078548;28;44134;-85
2021/07/19 05:01:25;;;;;;;1.03;0.73;;;;;;;19.12;68.51;99174.22;5078365;28;41718;-85
2021/07/19 05:03:55;;;;;;;0.70;0.70;;;;;;;19.39;68.60;99209.25;5078903;28;39261;-85
2021/07/19 05:06:26;;;;;;;0.83;0.70;;;;;;;19.50;68.01;99209.13;5077598;28;41060;-85
2021/07/19 05:08:55;;;;;;;0.60;0.60;;;;;;;19.61;68.23;99202.72;5094783;28;41691;-85
2021/07/19 05:11:25;;;;;;;0.80;0.80;;;;;;;19.58;68.49;99178.84;5077626;28;41382;-83
2021/07/19 05:13:53;;;;;;;1.10;0.90;;;;;;;19.68;68.15;99182.34;5077695;28;38887;-85
2021/07/19 05:16:21;;;;;;;0.40;0.40;;;;;;;19.93;68.20;99213.09;5095766;28;41727;-84
2021/07/19 05:18:50;;;;;;;0.80;0.80;;;;;;;20.04;68.01;99211.09;5076967;28;41697;-85
2021/07/19 05:21:17;;;;;;;0.80;0.80;;;;;;;20.15;68.68;99215.47;5094909;28;42402;-84
2021/07/19 05:23:46;;;;;;;0.80;0.80;;;;;;;20.29;68.27;99212.25;5078371;28;41066;-85
2021/07/19 05:26:15;;;;;;;0.80;0.70;;;;;;;20.44;68.06;99209.97;5057455;28;41847;-84
2021/07/19 05:28:42;;;;;;;1.63;1.53;;;;;;;20.58;68.68;99192.47;5058220;28;42579;-85
2021/07/19 05:31:10;;;;;;;1.27;1.00;;;;;;;20.86;67.95;99210.28;5057528;28;41254;-84
2021/07/19 05:33:37;;;;;;;2.37;1.00;;;;;;;20.97;68.07;99188.50;5063519;28;38832;-85
2021/07/19 05:36:05;;;;;;;1.30;1.20;;;;;;;21.10;67.89;99188.13;5078506;28;40669;-84
2021/07/19 05:38:33;;;;;;;0.60;0.60;;;;;;;21.26;67.97;99204.47;5077088;28;42176;-84
2021/07/19 05:41:02;;;;;;;0.77;0.70;;;;;;;21.39;67.37;99204.03;5079415;28;41496;-85
2021/07/19 05:43:29;;;;;;;0.80;0.80;;;;;;;21.45;67.48;99195.34;5078764;28;40062;-85
2021/07/19 05:45:57;;;;;;;1.20;1.10;;;;;;;21.65;67.00;99204.94;5078039;28;40833;-85
2021/07/19 05:48:25;;;;;;;1.43;1.33;;;;;;;21.72;66.87;99184.44;5094295;28;43896;-86
2021/07/19 05:50:53;;;;;;;1.13;0.97;;;;;;;21.88;66.53;99200.69;5077965;28;41241;-85
2021/07/19 05:53:20;;;;;;;0.77;0.60;;;;;;;21.95;65.86;99173.94;5077767;28;39210;-85
2021/07/19 05:55:49;;;;;;;1.20;1.10;;;;;;;22.16;65.44;99203.25;5076880;28;40934;-84
2021/07/19 05:58:19;;;;;;;1.13;0.80;;;;;;;22.01;65.43;99167.09;5094571;28;43058;-84
2021/07/19 06:00:47;;;;;;;1.43;0.97;;;;;;;22.34;65.19;99189.69;5075408;28;41476;-85
2021/07/19 06:03:16;;;;;;;1.20;1.10;;;;;;;22.44;64.54;99199.34;5073548;28;38842;-84
2021/07/19 06:05:43;;;;;;;1.10;0.97;;;;;;;22.57;63.71;99198.88;5126709;27;43388;-81
2021/07/19 06:08:11;;;;;;;1.03;0.97;;;;;;;22.53;64.02;99178.59;5092944;28;43035;-89
2021/07/19 06:10:39;;;;;;;1.10;1.00;;;;;;;22.62;63.96;99187.59;5109592;28;43305;-88
2021/07/19 06:13:06;;;;;;;1.10;1.00;;;;;;;22.75;64.02;99191.50;5076731;28;39943;-85
2021/07/19 06:15:36;;;;;;;1.60;1.00;;;;;;;22.67;63.71;99193.34;5075661;28;41029;-82
2021/07/19 06:18:04;;;;;;;1.80;1.63;;;;;;;22.74;63.79;99202.47;5076521;28;42693;-80
2021/07/19 06:20:31;;;;;;;0.97;0.87;;;;;;;22.65;63.67;99206.16;5091795;28;42493;-79
2021/07/19 06:23:02;;;;;;;1.00;0.90;;;;;;;22.61;63.95;99207.50;5076404;28;38865;-82
2021/07/19 06:25:31;;;;;;;0.80;0.80;;;;;;;22.75;64.10;99215.78;5075625;28;40585;-79
2021/07/19 06:27:59;;;;;;;0.87;0.87;;;;;;;22.91;63.85;99210.47;5076144;28;41832;-78
2021/07/19 06:30:27;;;;;;;0.80;0.80;;;;;;;22.96;63.85;99212.69;5075457;28;41652;-79
2021/07/19 06:32:56;;;;;;;0.90;0.90;;;;;;;22.93;63.54;99213.00;5093397;28;40738;-80
2021/07/19 06:35:24;;;;;;;2.00;1.10;;;;;;;22.85;63.49;99211.16;5072360;27;40714;-79
2021/07/19 06:37:52;;;;;;;0.93;0.93;;;;;;;22.77;63.41;99208.41;5093053;28;43800;-80
2021/07/19 06:40:20;;;;;;;1.00;0.90;;;;;;;22.80;63.57;99209.94;5093109;28;41577;-82
2021/07/19 06:42:48;;;;;;;1.40;1.30;;;;;;;22.81;62.98;99206.22;5073596;28;39271;-83
2021/07/19 06:45:16;;;;;;;1.47;1.30;;;;;;;23.03;63.13;99216.41;5058760;28;41069;-80
2021/07/19 06:47:44;;;;;;;0.97;0.93;;;;;;;23.24;62.83;99197.84;5092292;28;41792;-81
2021/07/19 06:50:13;;;;;;;1.07;0.93;;;;;;;23.44;62.47;99200.22;5110699;28;43293;-80
2021/07/19 06:52:42;;;;;;;1.20;1.10;;;;;;;23.64;62.10;99196.19;5093519;28;40120;-87
2021/07/19 06:55:14;;;;;;;0.90;0.83;;;;;;;24.12;60.63;99208.75;5108463;28;41388;-83
2021/07/19 06:57:41;;;;;;;2.40;1.77;;;;;;;24.73;59.95;99203.66;5111056;28;43059;-81
2021/07/19 07:00:11;;;;;;;1.63;1.53;;;;;;;25.05;59.16;99219.75;5090661;28;42852;-80
2021/07/19 07:02:38;;;;;;;1.27;1.17;;;;;;;25.21;58.30;99214.22;5091824;28;40921;-81
2021/07/19 07:05:07;;;;;;;1.20;1.10;;;;;;;25.30;56.91;99229.41;5092106;28;42106;-81
2021/07/19 07:07:36;;;;;;;0.90;0.90;;;;;;;25.26;56.36;99225.34;5111386;28;43190;-88
2021/07/19 07:10:05;;;;;;;1.00;1.00;;;;;;;25.30;56.47;99245.66;5091648;28;42341;-81
2021/07/19 07:12:33;;;;;;;1.27;1.13;;;;;;;25.61;56.55;99228.50;5074781;28;39396;-79
2021/07/19 07:15:00;;;;;;;0.83;0.83;;;;;;;25.85;56.75;99212.00;5091703;28;41546;-80
2021/07/19 07:17:28;;;;;;;1.70;0.70;;;;;;;26.10;55.71;99216.13;5090111;28;42354;-82
2021/07/19 07:19:56;;;;;;;1.37;1.00;;;;;;;26.43;55.17;99238.38;5110542;28;42620;-87
2021/07/19 07:22:25;;;;;;;0.73;0.73;;;;;;;26.65;54.15;99233.88;5126439;27;40362;-86
2021/07/19 07:24:54;;;;;;;0.83;0.83;;;;;;;26.86;52.34;99237.66;5075661;28;40871;-85
2021/07/19 07:27:23;;;;;;;0.80;0.70;;;;;;;27.15;51.57;99243.91;5074806;28;42132;-82
2021/07/19 07:29:52;;;;;;;0.90;0.90;;;;;;;27.13;50.68;99190.75;5092079;28;41506;-81
2021/07/19 07:32:20;;;;;;;0.83;0.83;;;;;;;28.01;49.73;99250.16;5090806;28;39277;-83
2021/07/19 07:34:48;;;;;;;1.17;0.90;;;;;;;28.40;48.48;99254.25;5092054;28;40964;-80
2021/07/19 07:37:16;;;;;;;1.40;1.17;;;;;;;29.44;46.63;99260.34;5092719;28;43159;-87
2021/07/19 07:39:45;;;;;;;1.33;1.00;;;;;;;30.64;43.54;99268.34;5093556;28;41841;-81
2021/07/19 07:42:14;;;;;;;0.77;0.77;;;;;;;32.32;40.78;99275.97;5092556;28;39072;-82
2021/07/19 07:44:42;;;;;;;0.70;0.70;;;;;;;33.77;38.32;99274.19;5075349;28;41630;-83
2021/07/19 07:47:10;;;;;;;0.80;0.80;;;;;;;34.88;36.05;99297.22;5075309;28;41936;-81
2021/07/19 07:49:38;;;;;;;1.17;1.07;;;;;;;34.74;35.69;99295.78;5110177;28;42412;-83
2021/07/19 07:52:06;;;;;;;0.93;0.90;;;;;;;34.64;36.21;99287.28;5109960;28;41097;-82
2021/07/19 07:54:34;;;;;;;2.63;0.90;;;;;;;34.48;35.45;99286.97;5073490;28;41981;-81
2021/07/19 07:57:02;;;;;;;1.30;1.20;;;;;;;34.71;34.79;99296.28;5074471;28;43097;-82
2021/07/19 07:59:31;;;;;;;1.03;1.03;;;;;;;34.40;34.72;99306.56;5092416;28;41723;-81
2021/07/19 08:01:59;;;;;;;0.90;0.90;;;;;;;33.99;36.02;99270.91;5073623;28;38854;-81
2021/07/19 08:04:34;;;;;;;0.87;0.87;;;;;;;34.31;36.35;99288.75;5075339;28;42828;-84
2021/07/19 08:07:02;;;;;;;2.27;1.50;;;;;;;34.75;35.96;99273.50;5090550;28;42141;-82
2021/07/19 08:09:30;;;;;;;1.33;1.23;;;;;;;34.32;35.36;99293.19;5092493;28;42155;-81
2021/07/19 08:11:58;;;;;;;1.27;1.17;;;;;;;33.56;37.38;99271.97;5091318;28;40377;-81
2021/07/19 08:14:26;;;;;;;1.10;1.10;;;;;;;33.37;38.16;99273.09;5073892;28;40863;-81
2021/07/19 08:16:55;;;;;;;0.93;0.93;;;;;;;33.00;37.86;99273.16;5074505;28;43451;-80
2021/07/19 08:19:28;;;;;;;1.40;1.13;;;;;;;33.29;38.46;99265.19;5091030;28;43192;-82
2021/07/19 08:21:56;;;;;;;1.10;1.00;;;;;;;33.77;37.57;99268.69;5091283;28;40191;-85
2021/07/19 08:24:24;;;;;;;1.40;1.30;;;;;;;34.07;37.17;99256.78;5074337;28;40734;-82
2021/07/19 08:26:51;;;;;;;1.23;1.10;;;;;;;34.32;35.78;99275.84;5091173;28;41719;-84
2021/07/19 08:29:19;;;;;;;1.43;0.83;;;;;;;34.30;35.69;99269.75;5090638;28;42239;-82
2021/07/19 08:31:47;;;;;;;1.30;1.20;;;;;;;34.52;35.45;99255.13;5091570;28;38758;-80
2021/07/19 08:34:16;;;;;;;1.60;1.10;;;;;;;34.64;35.50;99257.03;5110248;28;41763;-91
2021/07/19 08:36:49;;;;;;;1.10;1.00;;;;;;;35.10;34.23;99264.38;5074526;28;43243;-94
2021/07/19 08:39:19;;;;;;;1.37;1.30;;;;;;;35.51;33.62;99269.59;5074625;28;41216;-85
2021/07/19 08:41:47;;;;;;;0.80;0.80;;;;;;;36.19;33.00;99273.28;5072986;28;40854;-82
2021/07/19 08:44:16;;;;;;;1.00;1.00;;;;;;;37.73;31.54;99286.91;5110086;28;42136;-83
2021/07/19 08:46:48;;;;;;;2.13;0.95;;;;;;;39.46;28.96;99308.28;5074442;28;43101;-85
2021/07/19 08:49:18;;;;;;;0.80;0.80;;;;;;;40.94;26.79;99292.47;5074486;28;41319;-84
2021/07/19 08:51:47;;;;;;;1.00;1.00;;;;;;;42.51;24.80;99316.53;5091247;28;39920;-84
2021/07/19 08:54:15;;;;;;;1.17;1.10;;;;;;;42.43;24.54;99308.81;5074455;28;40670;-83
2021/07/19 08:56:44;;;;;;;0.82;0.82;;;;;;;42.96;24.19;99302.13;5091209;28;43227;-85
2021/07/19 08:59:17;;;;;;;1.90;1.08;;;;;;;44.21;22.69;99316.53;5074427;28;41495;-83
2021/07/19 09:01:46;;;;;;;0.77;0.77;;;;;;;43.97;22.50;99322.25;5089851;28;39781;-82
2021/07/19 09:04:21;;;;;;;0.77;0.77;;;;;;;41.84;24.57;99305.09;5073523;28;41083;-85
2021/07/19 09:06:49;;;;;;;1.17;1.13;;;;;;;39.78;26.76;99291.44;5073451;28;41737;-87
2021/07/19 09:09:27;;;;;;;1.30;1.20;;;;;;;38.33;28.32;99277.50;5073563;28;42561;-84
2021/07/19 09:11:55;;;;;;;1.20;1.10;;;;;;;37.20;29.39;99271.16;5073188;28;39840;-80
2021/07/19 09:14:23;;;;;;;1.30;1.20;;;;;;;36.18;31.02;99261.41;5108906;28;41552;-84
2021/07/19 09:16:52;;;;;;;1.27;1.20;;;;;;;35.68;31.76;99242.06;5073036;28;41816;-85
2021/07/19 09:19:23;;;;;;;1.23;1.23;;;;;;;36.43;31.68;99247.19;5073257;28;42439;-80
2021/07/19 09:21:55;;;;;;;0.97;0.97;;;;;;;36.65;30.49;99255.47;5073158;28;38850;-78
2021/07/19 09:24:24;;;;;;;1.07;0.97;;;;;;;36.07;31.08;99244.94;5090327;28;42016;-78
2021/07/19 09:26:53;;;;;;;1.13;1.13;;;;;;;35.61;32.39;99233.13;5089803;28;43163;-78
2021/07/19 09:29:23;;;;;;;1.90;1.43;;;;;;;35.44;31.94;99237.78;5108225;28;43295;-79
2021/07/19 09:31:53;;;;;;;1.07;0.97;;;;;;;36.13;31.33;99230.13;5108308;28;40997;-81
2021/07/19 09:34:24;;;;;;;0.80;0.80;;;;;;;37.31;29.17;99246.13;5109040;28;41884;-80
2021/07/19 09:37:07;;;;;;;1.00;1.00;;;;;;;37.07;29.85;99235.63;5074817;28;42730;-83
2021/07/19 09:39:42;;;;;;;1.07;1.00;;;;;;;36.40;31.58;99227.53;5090125;28;42478;-83
2021/07/19 09:42:13;;;;;;;1.00;1.00;;;;;;;36.21;31.88;99224.22;5093830;28;40232;-84
2021/07/19 09:44:42;;;;;;;0.93;0.93;;;;;;;35.90;32.43;99223.72;5093785;28;41276;-86
2021/07/19 09:47:12;;;;;;;1.20;1.10;;;;;;;35.41;32.95;99219.00;5094039;28;43018;-82
2021/07/19 09:49:41;;;;;;;1.30;1.20;;;;;;;34.72;33.81;99187.88;5077338;28;41125;-86
2021/07/19 09:52:12;;;;;;;1.43;0.93;;;;;;;34.74;33.30;99218.75;5093869;28;40194;-86
2021/07/19 09:54:42;;;;;;;0.97;0.90;;;;;;;35.09;33.16;99215.91;5092600;28;41915;-81
2021/07/19 09:57:10;;;;;;;0.70;0.70;;;;;;;34.87;33.75;99190.94;5093866;28;42719;-87
2021/07/19 09:59:39;;;;;;;0.90;0.90;;;;;;;35.92;31.38;99226.25;5077681;28;41521;-84
2021/07/19 10:02:10;;;;;;;1.70;1.07;;;;;;;37.10;31.57;99197.25;5112085;28;40146;-82
2021/07/19 10:04:45;;;;;;;1.33;1.20;;;;;;;38.47;27.98;99242.69;5093090;28;41025;-81
2021/07/19 10:07:23;;;;;;;4.60;3.97;;;;;;;38.68;27.09;99238.97;5092588;28;43161;-80
2021/07/19 10:09:56;;;;;;;2.10;1.83;;;;;;;38.09;29.17;99217.00;5076143;28;41690;-79
2021/07/19 10:12:24;;;;;;;0.87;0.87;;;;;;;37.72;29.68;99213.38;5092423;28;39281;-80
2021/07/19 10:14:52;;;;;;;1.30;1.20;;;;;;;37.69;29.41;99205.63;5076297;28;40689;-81
2021/07/19 10:17:20;;;;;;;1.20;1.10;;;;;;;37.90;29.93;99201.91;5075713;28;41736;-81
2021/07/19 10:19:49;;;;;;;0.90;0.90;;;;;;;38.16;30.79;99202.94;5092347;28;41311;-82
2021/07/19 10:22:17;;;;;;;1.00;0.90;;;;;;;37.68;30.72;99206.72;5092774;28;41989;-79
2021/07/19 10:24:46;;;;;;;1.00;0.90;;;;;;;37.05;29.76;99216.53;5110558;28;42815;-80
2021/07/19 10:27:17;;;;;;;1.10;1.10;;;;;;;37.49;30.72;99206.22;5105198;28;42696;-80
2021/07/19 10:29:46;;;;;;;0.90;0.90;;;;;;;37.66;29.36;99219.97;5109186;28;42456;-79
2021/07/19 10:32:18;;;;;;;0.90;0.90;;;;;;;37.06;29.95;99209.91;5098917;27;41090;-80
2021/07/19 10:34:50;;;;;;;1.20;1.10;;;;;;;36.22;30.45;99204.69;5100599;28;42528;-80
2021/07/19 10:37:23;;;;;;;0.83;0.83;;;;;;;35.45;32.04;99204.47;5108422;28;43190;-80
2021/07/19 10:39:55;;;;;;;0.80;0.80;;;;;;;35.54;32.53;99191.13;5111763;28;42979;-81
2021/07/19 10:42:34;;;;;;;1.13;1.03;;;;;;;35.77;33.17;99152.41;5075052;28;39189;-81
2021/07/19 10:45:09;;;;;;;0.90;0.90;;;;;;;36.67;31.51;99184.31;5091764;28;42651;-80
2021/07/19 10:47:47;;;;;;;1.40;1.30;;;;;;;37.18;30.39;99191.28;5082276;28;43209;-81
2021/07/19 10:50:19;;;;;;;1.07;1.00;;;;;;;37.38;29.37;99191.50;5105055;27;41370;-80
2021/07/19 10:52:47;;;;;;;1.00;1.00;;;;;;;37.04;29.21;99196.38;5083754;28;38816;-80
2021/07/19 10:55:26;;;;;;;2.30;1.33;;;;;;;36.28;30.74;99169.72;5121428;27;41990;-80
2021/07/19 10:58:02;;;;;;;1.40;1.30;;;;;;;35.62;31.57;99174.16;5068624;28;43117;-80
2021/07/19 11:00:37;;;;;;;0.87;0.87;;;;;;;35.44;33.29;99153.22;5124085;27;41914;-80
2021/07/19 11:03:12;;;;;;;1.20;1.10;;;;;;;35.09;32.83;99169.94;5100521;28;39836;-81
2021/07/19 11:05:43;;;;;;;1.47;1.37;;;;;;;34.68;32.70;99175.69;5085428;28;41573;-80
2021/07/19 11:08:20;;;;;;;1.63;1.53;;;;;;;34.98;32.45;99162.56;5099507;28;42052;-79
2021/07/19 11:10:49;;;;;;;1.63;1.40;;;;;;;35.32;32.45;99160.72;5099124;28;43236;-79
2021/07/19 11:13:28;;;;;;;1.47;1.37;;;;;;;35.58;33.29;99149.06;5075197;28;39721;-81
2021/07/19 11:15:57;;;;;;;1.90;1.20;;;;;;;35.65;33.49;99137.84;5109457;28;42043;-82
2021/07/19 11:18:28;;;;;;;1.00;1.00;;;;;;;35.99;33.57;99135.91;5107795;28;41838;-88
2021/07/19 11:20:59;;;;;;;1.30;1.20;;;;;;;36.41;29.66;99168.50;5099777;28;41755;-80
2021/07/19 11:23:29;;;;;;;1.63;1.33;;;;;;;36.44;31.13;99155.03;5088245;28;40281;-76
2021/07/19 11:25:58;;;;;;;1.80;1.70;;;;;;;36.42;31.14;99153.63;5091661;28;41924;-78
2021/07/19 11:28:28;;;;;;;2.03;1.73;;;;;;;36.59;31.60;99138.69;5109928;28;43843;-88
2021/07/19 11:31:10;;;;;;;1.67;1.43;;;;;;;36.85;30.63;99148.09;5109151;28;42608;-79
2021/07/19 11:33:40;;;;;;;1.77;1.60;;;;;;;36.63;30.28;99156.38;5110536;28;40305;-80
2021/07/19 11:36:26;;;;;;;1.40;1.30;;;;;;;36.25;30.76;99149.00;5108980;28;41754;-77
2021/07/19 11:38:55;;;;;;;2.10;1.60;;;;;;;35.84;32.13;99136.53;5108647;28;43734;-78
2021/07/19 11:41:24;;;;;;;1.50;1.40;;;;;;;35.51;32.43;99140.09;5108920;28;42684;-79
2021/07/19 11:43:55;;;;;;;1.13;1.00;;;;;;;35.16;32.43;99104.50;5091357;28;39287;-80
2021/07/19 11:46:28;;;;;;;1.30;1.20;;;;;;;36.01;33.84;99117.19;5088101;28;40732;-78
2021/07/19 11:48:58;;;;;;;1.63;1.53;;;;;;;36.82;30.93;99136.75;5089747;28;43077;-79
2021/07/19 11:51:29;;;;;;;1.67;1.27;;;;;;;37.57;30.72;99114.56;5083539;28;42840;-78